createdAt,value
2019-02-06T00:02:14.709Z,64.05
2019-02-06T00:07:18.173Z,71.67
2019-02-06T00:12:19.760Z,72.65
2019-02-06T00:17:24.456Z,67.67
2019-02-06T00:22:26.191Z,67.82
2019-02-06T00:27:27.777Z,68.02
2019-02-06T00:32:29.198Z,63.42
2019-02-06T00:37:30.423Z,70.47
2019-02-06T00:42:34.287Z,60.73
2019-02-06T00:47:36.663Z,68.12
2019-02-06T00:52:38.320Z,71.67
2019-02-06T00:57:40.529Z,69.05
2019-02-06T01:02:41.849Z,67.90
2019-02-06T01:07:44.818Z,68.55
2019-02-06T01:12:46.642Z,69.12
2019-02-06T01:17:49.041Z,66.45
2019-02-06T01:22:50.659Z,65.37
2019-02-06T01:27:52.021Z,70.17
2019-02-06T01:32:53.341Z,71.70
2019-02-06T01:37:54.601Z,71.70
2019-02-06T01:42:56.057Z,72.30
2019-02-06T01:47:57.878Z,74.07
2019-02-06T01:52:59.081Z,65.70
2019-02-06T01:58:00.278Z,65.60
2019-02-06T02:03:01.579Z,69.80
2019-02-06T02:08:03.286Z,68.00
2019-02-06T02:13:04.506Z,71.28
2019-02-06T02:18:05.940Z,67.55
2019-02-06T02:23:07.301Z,67.62
2019-02-06T02:28:10.248Z,68.10
2019-02-06T02:33:11.714Z,64.17
2019-02-06T02:38:13.005Z,58.45
2019-02-06T02:43:14.385Z,63.73
2019-02-06T02:48:15.823Z,64.90
2019-02-06T02:53:17.074Z,64.00
2019-02-06T02:58:19.586Z,61.35
2019-02-06T03:03:37.961Z,61.35
2019-02-06T03:08:39.208Z,60.60
2019-02-06T03:13:40.486Z,64.87
2019-02-06T03:18:41.673Z,59.75
2019-02-06T03:23:43.584Z,58.08
2019-02-06T03:28:45.058Z,54.33
2019-02-06T03:33:46.376Z,56.55
2019-02-06T03:38:47.835Z,55.08
2019-02-06T03:43:49.020Z,57.10
2019-02-06T03:48:51.305Z,51.33
2019-02-06T03:53:53.608Z,55.38
2019-02-06T03:58:54.835Z,57.23
2019-02-06T04:03:56.386Z,59.05
2019-02-06T04:08:57.683Z,63.08
2019-02-06T04:13:59.114Z,59.73
2019-02-06T04:19:00.353Z,59.80
2019-02-06T04:24:01.760Z,58.70
2019-02-06T04:29:03.199Z,60.17
2019-02-06T04:34:04.431Z,62.00
2019-02-06T04:39:06.320Z,59.58
2019-02-06T04:44:08.047Z,60.67
2019-02-06T04:49:09.528Z,58.20
2019-02-06T04:54:10.762Z,58.83
2019-02-06T04:59:12.441Z,57.35
2019-02-06T05:04:13.608Z,59.83
2019-02-06T05:09:15.142Z,60.10
2019-02-06T05:14:16.424Z,64.97
2019-02-06T05:19:17.769Z,63.70
2019-02-06T05:24:18.961Z,58.15
2019-02-06T05:29:20.177Z,57.78
2019-02-06T05:34:21.655Z,65.25
2019-02-06T05:39:22.958Z,60.73
2019-02-06T05:44:24.170Z,54.53
2019-02-06T05:49:27.098Z,57.88
2019-02-06T05:54:28.652Z,57.33
2019-02-06T05:59:30.079Z,60.25
2019-02-06T06:04:31.455Z,67.25
2019-02-06T06:09:33.358Z,59.05
2019-02-06T06:14:34.994Z,60.38
2019-02-06T06:19:36.196Z,57.00
2019-02-06T06:24:37.988Z,61.50
2019-02-06T06:29:39.263Z,61.48
2019-02-06T06:34:40.464Z,62.05
2019-02-06T06:39:41.624Z,58.05
2019-02-06T06:44:42.914Z,64.60
2019-02-06T06:49:44.625Z,59.80
2019-02-06T06:54:45.830Z,71.95
2019-02-06T06:59:47.136Z,58.80
2019-02-06T07:04:48.888Z,60.65
2019-02-06T07:09:50.090Z,60.33
2019-02-06T07:14:51.277Z,64.65
2019-02-06T07:19:52.427Z,60.48
2019-02-06T07:24:53.855Z,55.75
2019-02-06T07:29:55.085Z,60.98
2019-02-06T07:34:56.150Z,60.33
2019-02-06T07:39:57.442Z,67.97
2019-02-06T07:44:58.881Z,62.95
2019-02-06T07:50:00.454Z,61.85
2019-02-06T07:55:01.948Z,59.75
2019-02-06T08:00:06.840Z,61.92
2019-02-06T08:05:18.951Z,59.45
2019-02-06T08:10:28.130Z,61.10
2019-02-06T08:15:29.430Z,58.90
2019-02-06T08:20:30.675Z,59.38
2019-02-06T08:25:31.812Z,60.95
2019-02-06T08:30:37.999Z,57.17
2019-02-06T08:35:39.504Z,59.88
2019-02-06T08:40:40.829Z,60.12
2019-02-06T08:45:42.119Z,57.95
2019-02-06T08:50:43.570Z,52.60
2019-02-06T08:55:44.933Z,50.00
2019-02-06T09:00:46.083Z,47.45
2019-02-06T09:05:47.652Z,48.28
2019-02-06T09:10:49.001Z,48.73
2019-02-06T09:15:50.275Z,46.28
2019-02-06T09:20:52.848Z,45.15
2019-02-06T09:25:58.928Z,44.23
2019-02-06T09:31:01.445Z,40.23
2019-02-06T09:36:03.645Z,43.17
2019-02-06T09:41:05.087Z,36.98
2019-02-06T09:46:06.405Z,37.80
2019-02-06T09:51:07.827Z,36.40
2019-02-06T09:56:11.260Z,39.10
2019-02-06T10:01:13.631Z,44.48
2019-02-06T10:06:15.328Z,38.40
2019-02-06T10:11:16.709Z,33.25
2019-02-06T10:16:20.129Z,33.63
2019-02-06T10:21:21.198Z,37.10
2019-02-06T10:26:22.607Z,34.43
2019-02-06T10:31:23.913Z,34.23
2019-02-06T10:36:25.352Z,33.08
2019-02-06T10:41:26.496Z,27.82
2019-02-06T10:46:29.464Z,30.60
2019-02-06T10:51:30.790Z,29.15
2019-02-06T10:56:32.072Z,28.52
2019-02-06T11:01:33.252Z,28.15
2019-02-06T11:06:35.195Z,28.98
2019-02-06T11:11:36.333Z,28.25
2019-02-06T11:16:40.602Z,27.25
2019-02-06T11:21:49.283Z,32.38
2019-02-06T11:26:57.563Z,26.00
2019-02-06T11:32:01.321Z,25.43
2019-02-06T11:37:02.846Z,26.00
2019-02-06T11:42:06.797Z,26.00
2019-02-06T11:47:08.399Z,27.25
2019-02-06T11:52:13.628Z,26.57
2019-02-06T11:57:17.672Z,24.87
2019-02-06T12:02:20.983Z,25.72
2019-02-06T12:07:22.384Z,24.05
2019-02-06T12:12:24.118Z,21.80
2019-02-06T12:17:25.644Z,22.85
2019-02-06T12:22:26.780Z,22.75
2019-02-06T12:27:28.223Z,23.50
2019-02-06T12:32:30.126Z,27.90
2019-02-06T12:37:32.006Z,30.57
2019-02-06T12:42:35.523Z,32.15
2019-02-06T12:47:37.141Z,29.92
2019-02-06T12:52:38.847Z,32.93
2019-02-06T12:57:40.246Z,39.53
2019-02-06T13:02:41.806Z,33.23
2019-02-06T13:07:43.930Z,32.05
2019-02-06T13:12:45.397Z,30.52
2019-02-06T13:17:47.507Z,28.67
2019-02-06T13:22:49.433Z,30.20
2019-02-06T13:27:51.904Z,30.95
2019-02-06T13:32:53.690Z,33.63
2019-02-06T13:37:57.690Z,28.98
2019-02-06T13:42:59.055Z,28.47
2019-02-06T13:48:00.714Z,30.95
2019-02-06T13:53:02.230Z,34.80
2019-02-06T13:58:05.431Z,31.95
2019-02-06T14:03:06.842Z,32.67
2019-02-06T14:08:11.607Z,33.38
2019-02-06T14:13:12.991Z,31.60
2019-02-06T14:18:14.689Z,34.88
2019-02-06T14:23:29.022Z,29.05
2019-02-06T14:28:57.299Z,29.12
2019-02-06T14:34:12.068Z,31.20
2019-02-06T14:39:33.658Z,30.17
2019-02-06T14:44:57.152Z,31.25
2019-02-06T14:50:11.640Z,29.98
2019-02-06T14:55:30.123Z,29.85
2019-02-06T15:00:59.905Z,29.45
2019-02-06T15:06:12.900Z,25.88
2019-02-06T15:11:24.062Z,27.45
2019-02-06T15:16:46.401Z,27.48
2019-02-06T15:21:51.607Z,25.72
2019-02-06T15:27:13.648Z,28.98
2019-02-06T15:32:33.987Z,33.73
2019-02-06T15:37:57.012Z,37.05
2019-02-06T15:43:02.072Z,36.70
2019-02-06T15:48:24.247Z,29.12
2019-02-06T15:53:36.373Z,31.48
2019-02-06T15:58:58.417Z,36.77
2019-02-06T16:04:34.876Z,33.67
2019-02-06T16:09:55.531Z,31.90
2019-02-06T16:15:03.673Z,38.25
2019-02-06T16:20:28.268Z,31.65
2019-02-06T16:25:37.762Z,36.23
2019-02-06T16:30:57.684Z,39.38
2019-02-06T16:36:11.488Z,40.25
2019-02-06T16:41:37.894Z,36.53
2019-02-06T16:47:05.903Z,47.45
2019-02-06T16:52:17.910Z,42.78
2019-02-06T16:57:35.344Z,41.80
2019-02-06T17:02:43.385Z,40.78
2019-02-06T17:07:54.808Z,40.78
2019-02-06T17:13:20.877Z,50.08
2019-02-06T17:18:42.891Z,42.08
2019-02-06T17:23:50.943Z,39.95
2019-02-06T17:28:59.358Z,40.70
2019-02-06T17:34:22.928Z,44.50
2019-02-06T17:39:58.790Z,51.42
2019-02-06T17:45:13.189Z,49.30
2019-02-06T17:50:27.130Z,47.83
2019-02-06T17:55:29.799Z,47.90
2019-02-06T18:00:37.995Z,50.67
2019-02-06T18:05:40.335Z,47.05
2019-02-06T18:10:41.993Z,45.52
2019-02-06T18:15:43.630Z,47.75
2019-02-06T18:20:44.930Z,54.35
2019-02-06T18:25:46.633Z,47.00
2019-02-06T18:30:48.129Z,50.12
2019-02-06T18:35:49.564Z,51.42
2019-02-06T18:40:50.839Z,57.78
2019-02-06T18:45:52.480Z,56.48
2019-02-06T18:50:54.433Z,60.58
2019-02-06T18:55:56.032Z,57.13
2019-02-06T19:00:57.486Z,55.55
2019-02-06T19:05:59.927Z,62.25
2019-02-06T19:11:01.841Z,54.90
2019-02-06T19:16:06.648Z,55.98
2019-02-06T19:21:08.611Z,55.38
2019-02-06T19:26:10.707Z,56.45
2019-02-06T19:31:12.503Z,53.50
2019-02-06T19:36:14.071Z,54.67
2019-02-06T19:41:15.912Z,49.48
2019-02-06T19:46:17.714Z,47.90
2019-02-06T19:51:19.434Z,47.13
2019-02-06T19:56:21.021Z,45.50
2019-02-06T20:01:22.860Z,53.00
2019-02-06T20:06:26.217Z,58.23
2019-02-06T20:11:28.486Z,54.15
2019-02-06T20:16:29.985Z,53.70
2019-02-06T20:21:31.583Z,52.43
2019-02-06T20:26:33.303Z,50.65
2019-02-06T20:31:34.832Z,53.73
2019-02-06T20:36:36.294Z,52.80
2019-02-06T20:41:38.307Z,50.70
2019-02-06T20:46:39.516Z,48.58
2019-02-06T20:51:41.124Z,53.68
2019-02-06T20:56:42.869Z,68.70
2019-02-06T21:01:44.861Z,74.97
2019-02-06T21:06:46.247Z,62.23
2019-02-06T21:11:47.447Z,54.70
2019-02-06T21:16:48.829Z,51.63
2019-02-06T21:21:50.346Z,61.30
2019-02-06T21:26:51.794Z,52.43
2019-02-06T21:31:53.397Z,46.13
2019-02-06T21:36:56.108Z,55.90
2019-02-06T21:41:57.672Z,53.92
2019-02-06T21:46:59.340Z,57.05
2019-02-06T21:52:00.840Z,58.85
2019-02-06T21:57:02.183Z,51.35
2019-02-06T22:02:03.504Z,56.48
2019-02-06T22:07:04.839Z,49.48
2019-02-06T22:12:06.355Z,45.55
2019-02-06T22:17:07.647Z,45.70
2019-02-06T22:22:09.059Z,49.70
2019-02-06T22:27:10.602Z,48.73
2019-02-06T22:32:12.261Z,51.73
2019-02-06T22:37:13.474Z,66.80
2019-02-06T22:42:14.888Z,46.25
2019-02-06T22:47:16.350Z,53.42
2019-02-06T22:52:17.657Z,136.03
2019-02-06T22:57:19.193Z,64.70
2019-02-06T23:02:20.383Z,48.42
2019-02-06T23:07:21.874Z,51.20
2019-02-06T23:12:23.765Z,55.17
2019-02-06T23:17:25.227Z,45.38
2019-02-06T23:22:26.878Z,41.37
2019-02-06T23:27:28.360Z,53.25
2019-02-06T23:32:29.763Z,45.25
2019-02-06T23:37:31.563Z,48.30
2019-02-06T23:42:32.962Z,49.70
2019-02-06T23:47:34.474Z,48.90
2019-02-06T23:52:35.971Z,45.63
2019-02-06T23:57:37.104Z,51.05
